Time;durP1;ratioP1;P1;durP2;ratioP2;P2;SDS_P1;SDS_P2;PMS_P1;PMS_P2;Temp;Humidity;BMP_temperature;BMP_pressure;BME280_temperature;BME280_humidity;BME280_pressure;Samples;Min_cycle;Max_cycle;Signal;HPM_P1;HPM_P2
2023/06/17 00:01:14;;;;;;;6.03;4.10;;;16.60;99.90;;;;;;4989134;28;20238;-72
2023/06/17 00:03:42;;;;;;;4.50;4.10;;;16.60;99.90;;;;;;4989049;28;20225;-73
2023/06/17 00:06:09;;;;;;;5.30;4.30;;;16.70;99.90;;;;;;4987471;28;20250;-74
2023/06/17 00:08:36;;;;;;;4.77;4.40;;;16.70;99.90;;;;;;4987576;28;20669;-74
2023/06/17 00:11:03;;;;;;;4.70;4.40;;;16.70;99.90;;;;;;4987397;28;20221;-73
2023/06/17 00:13:32;;;;;;;5.00;4.50;;;16.70;99.90;;;;;;4986388;28;20775;-73
2023/06/17 00:16:00;;;;;;;6.00;4.90;;;16.70;99.90;;;;;;4986567;28;20199;-74
2023/06/17 00:18:28;;;;;;;5.83;4.53;;;16.70;99.90;;;;;;4986826;28;20298;-72
2023/06/17 00:20:57;;;;;;;4.23;4.00;;;16.70;99.90;;;;;;4986739;28;20245;-73
2023/06/17 00:23:25;;;;;;;4.77;4.47;;;16.70;99.90;;;;;;4985266;28;20256;-75
2023/06/17 00:25:52;;;;;;;5.30;4.83;;;16.50;99.90;;;;;;4984370;28;20206;-75
2023/06/17 00:28:19;;;;;;;4.97;4.63;;;16.40;99.90;;;;;;4986393;28;20214;-73
2023/06/17 00:30:47;;;;;;;4.80;4.50;;;16.40;99.90;;;;;;4985767;28;20205;-73
2023/06/17 00:33:14;;;;;;;4.97;4.67;;;16.50;99.90;;;;;;4986208;28;20198;-73
2023/06/17 00:35:41;;;;;;;4.80;4.50;;;16.50;99.90;;;;;;4986064;28;20661;-74
2023/06/17 00:38:11;;;;;;;5.00;4.70;;;16.40;99.90;;;;;;4987093;28;20699;-74
2023/06/17 00:40:40;;;;;;;4.67;4.37;;;16.50;99.90;;;;;;4986702;28;20229;-74
2023/06/17 00:43:07;;;;;;;4.67;4.37;;;16.50;99.90;;;;;;4986126;28;20198;-74
2023/06/17 00:45:40;;;;;;;5.00;4.67;;;16.60;99.90;;;;;;4986723;28;20233;-75
2023/06/17 00:48:10;;;;;;;4.60;4.30;;;16.60;99.90;;;;;;4986664;28;20202;-74
2023/06/17 00:50:38;;;;;;;4.97;4.67;;;16.60;99.90;;;;;;4984263;28;20221;-74
2023/06/17 00:53:06;;;;;;;5.00;4.60;;;16.60;99.90;;;;;;4986222;28;20248;-74
2023/06/17 00:55:34;;;;;;;4.70;4.40;;;16.60;99.90;;;;;;4986304;28;20217;-74
2023/06/17 00:58:01;;;;;;;5.40;4.77;;;16.60;99.90;;;;;;4992355;28;20292;-74
2023/06/17 01:00:29;;;;;;;4.83;4.53;;;16.60;99.90;;;;;;4995930;28;20348;-75
2023/06/17 01:02:56;;;;;;;5.17;4.87;;;16.40;99.90;;;;;;4986186;28;20711;-74
2023/06/17 01:05:25;;;;;;;5.67;5.30;;;16.40;99.90;;;;;;4985296;28;20242;-74
2023/06/17 01:08:14;;;;;;;5.47;5.07;;;16.00;99.90;;;;;;4986026;28;20202;-75
2023/06/17 01:10:47;;;;;;;6.13;5.67;;;16.00;99.90;;;;;;4986232;28;20221;-76
2023/06/17 01:13:16;;;;;;;6.03;5.63;;;16.10;99.90;;;;;;4986202;28;20195;-75
2023/06/17 01:15:44;;;;;;;7.30;5.90;;;16.10;99.90;;;;;;4985535;28;20213;-75
2023/06/17 01:18:11;;;;;;;6.67;6.07;;;16.20;99.90;;;;;;4986056;28;20240;-75
2023/06/17 01:20:40;;;;;;;5.97;5.57;;;16.20;99.90;;;;;;4985634;28;20716;-76
2023/06/17 01:23:10;;;;;;;5.50;5.20;;;16.20;99.90;;;;;;4988111;28;20228;-76
2023/06/17 01:25:39;;;;;;;6.13;5.73;;;16.20;99.90;;;;;;4989589;28;20293;-73
2023/06/17 01:28:15;;;;;;;6.60;6.10;;;16.30;99.90;;;;;;4990087;28;20320;-73
2023/06/17 01:30:42;;;;;;;5.97;5.50;;;16.30;99.90;;;;;;4989833;28;20638;-73
2023/06/17 01:33:10;;;;;;;6.37;5.87;;;16.30;99.90;;;;;;4990176;28;20326;-73
2023/06/17 01:35:41;;;;;;;6.00;5.60;;;16.30;99.90;;;;;;4989718;28;20281;-74
2023/06/17 01:38:15;;;;;;;6.30;5.77;;;16.30;99.90;;;;;;4987038;28;20241;-74
2023/06/17 01:40:45;;;;;;;6.17;5.57;;;16.30;99.90;;;;;;4988781;28;20226;-73
2023/06/17 01:43:13;;;;;;;5.90;5.50;;;16.30;99.90;;;;;;4989105;28;20737;-74
2023/06/17 01:45:42;;;;;;;5.57;5.17;;;16.30;99.90;;;;;;4989413;28;20241;-74
2023/06/17 01:48:09;;;;;;;7.50;5.60;;;16.30;99.90;;;;;;4989163;28;20297;-74
2023/06/17 01:50:36;;;;;;;6.30;5.50;;;16.30;99.90;;;;;;4989003;28;20218;-74
2023/06/17 01:53:03;;;;;;;5.93;5.60;;;16.30;99.90;;;;;;4988706;28;20330;-74
2023/06/17 01:55:30;;;;;;;6.97;6.20;;;16.30;99.90;;;;;;4995496;28;20220;-74
2023/06/17 01:57:58;;;;;;;6.50;6.00;;;16.30;99.90;;;;;;4988793;28;20933;-75
2023/06/17 02:00:26;;;;;;;6.17;5.77;;;16.30;99.90;;;;;;4988504;28;20775;-75
2023/06/17 02:02:53;;;;;;;6.33;5.93;;;16.30;99.90;;;;;;4989241;28;20298;-75
2023/06/17 02:05:20;;;;;;;9.20;6.17;;;16.30;99.90;;;;;;4988973;28;20996;-75
2023/06/17 02:07:47;;;;;;;7.47;6.80;;;16.20;99.90;;;;;;4989333;28;20313;-76
2023/06/17 02:10:14;;;;;;;7.07;6.33;;;16.20;99.90;;;;;;4989109;28;20206;-75
2023/06/17 02:12:41;;;;;;;6.97;6.43;;;16.20;99.90;;;;;;4989240;28;20198;-75
2023/06/17 02:15:11;;;;;;;7.17;6.50;;;16.30;99.90;;;;;;4988794;28;20288;-75
2023/06/17 02:17:38;;;;;;;6.93;6.37;;;16.30;99.90;;;;;;4989162;28;20232;-75
2023/06/17 02:20:07;;;;;;;6.40;5.90;;;16.30;99.90;;;;;;4989008;28;20238;-75
2023/06/17 02:22:34;;;;;;;7.13;6.47;;;16.20;99.90;;;;;;4989361;28;20313;-75
2023/06/17 02:25:02;;;;;;;6.53;5.93;;;16.20;99.90;;;;;;4989018;28;20321;-75
2023/06/17 02:27:28;;;;;;;9.20;6.00;;;16.00;99.90;;;;;;4989022;28;20230;-75
2023/06/17 02:29:55;;;;;;;6.23;5.70;;;16.00;99.90;;;;;;4988540;28;20212;-75
2023/06/17 02:32:23;;;;;;;6.30;5.20;;;16.00;99.90;;;;;;4988690;28;20210;-75
2023/06/17 02:34:51;;;;;;;6.13;5.53;;;16.00;99.90;;;;;;4988556;28;20251;-75
2023/06/17 02:37:18;;;;;;;6.33;5.80;;;16.10;99.90;;;;;;4988527;28;20217;-75
2023/06/17 02:39:45;;;;;;;5.80;5.40;;;16.10;99.90;;;;;;4988312;28;20216;-75
2023/06/17 02:42:12;;;;;;;7.03;6.43;;;16.10;99.90;;;;;;4988576;28;20210;-75
2023/06/17 02:44:39;;;;;;;6.13;5.53;;;16.10;99.90;;;;;;4988332;28;20218;-75
2023/06/17 02:47:07;;;;;;;6.60;6.10;;;16.00;99.90;;;;;;4988347;28;20270;-76
2023/06/17 02:49:35;;;;;;;6.60;6.00;;;16.00;99.90;;;;;;4987699;28;20976;-75
2023/06/17 02:52:04;;;;;;;7.83;5.60;;;16.00;99.90;;;;;;4988430;28;20254;-75
2023/06/17 02:54:31;;;;;;;9.03;5.77;;;15.90;99.90;;;;;;4986485;28;20207;-75
2023/06/17 02:56:58;;;;;;;8.57;6.73;;;16.00;99.90;;;;;;4969084;28;20210;-75
2023/06/17 02:59:25;;;;;;;6.57;6.03;;;15.90;99.90;;;;;;4971039;28;20218;-75
2023/06/17 03:01:52;;;;;;;6.43;6.00;;;15.80;99.90;;;;;;4987472;28;20707;-75
2023/06/17 03:04:20;;;;;;;6.60;6.07;;;15.80;99.90;;;;;;4987864;28;20468;-75
2023/06/17 03:06:50;;;;;;;7.13;6.07;;;15.80;99.90;;;;;;4987369;28;20732;-75
2023/06/17 03:09:18;;;;;;;6.43;5.93;;;15.90;99.90;;;;;;4987793;28;20195;-75
2023/06/17 03:11:45;;;;;;;6.37;5.87;;;15.90;99.90;;;;;;4987757;28;20216;-75
2023/06/17 03:14:12;;;;;;;6.30;5.77;;;15.90;99.90;;;;;;4987554;28;20213;-76
2023/06/17 03:16:40;;;;;;;6.90;6.17;;;16.00;99.90;;;;;;4987051;28;20210;-75
2023/06/17 03:19:07;;;;;;;8.30;6.00;;;16.00;99.90;;;;;;4987788;28;20260;-75
2023/06/17 03:21:39;;;;;;;7.33;6.17;;;16.00;99.90;;;;;;4986840;28;20244;-75
2023/06/17 03:24:07;;;;;;;6.80;6.20;;;15.90;99.90;;;;;;4987461;28;20872;-75
2023/06/17 03:26:34;;;;;;;6.67;6.17;;;15.90;99.90;;;;;;4987086;28;20210;-75
2023/06/17 03:29:02;;;;;;;6.80;6.27;;;16.00;99.90;;;;;;4987362;28;20750;-75
2023/06/17 03:31:29;;;;;;;6.40;6.00;;;16.00;99.90;;;;;;4987604;28;20248;-75
2023/06/17 03:33:56;;;;;;;6.57;6.00;;;16.00;99.90;;;;;;4987825;28;20312;-75
2023/06/17 03:36:28;;;;;;;6.97;6.37;;;16.00;99.90;;;;;;4987294;28;20352;-75
2023/06/17 03:38:55;;;;;;;6.97;6.47;;;16.10;99.90;;;;;;4985199;28;20281;-77
2023/06/17 03:41:24;;;;;;;6.60;6.10;;;16.10;99.90;;;;;;4987318;28;20603;-76
2023/06/17 03:43:51;;;;;;;7.60;6.37;;;16.10;99.90;;;;;;4986832;28;20257;-77
2023/06/17 03:46:19;;;;;;;6.97;6.37;;;16.10;99.90;;;;;;4985879;28;20212;-75
2023/06/17 03:48:45;;;;;;;6.60;6.10;;;16.10;99.90;;;;;;4986568;28;20289;-75
2023/06/17 03:51:12;;;;;;;7.33;6.83;;;16.10;99.90;;;;;;4986819;28;20202;-75
2023/06/17 03:53:40;;;;;;;7.47;6.87;;;16.10;99.90;;;;;;4986448;28;20287;-74
2023/06/17 03:56:07;;;;;;;6.93;6.43;;;16.10;99.90;;;;;;4987001;28;20308;-75
2023/06/17 03:58:35;;;;;;;7.73;6.80;;;16.10;99.90;;;;;;4986701;28;20328;-74
2023/06/17 04:01:02;;;;;;;6.83;6.20;;;16.10;99.90;;;;;;4986482;28;20244;-75
2023/06/17 04:03:29;;;;;;;7.63;6.67;;;16.10;99.90;;;;;;4977469;28;20289;-75
2023/06/17 04:05:59;;;;;;;9.33;8.20;;;16.10;99.90;;;;;;4986963;28;20292;-75
2023/06/17 04:08:27;;;;;;;7.37;6.77;;;16.10;99.90;;;;;;4987054;28;20695;-75
2023/06/17 04:10:54;;;;;;;7.60;6.90;;;16.10;99.90;;;;;;4986655;28;20261;-75
2023/06/17 04:13:20;;;;;;;8.17;7.10;;;16.10;99.90;;;;;;4986795;28;20568;-75
2023/06/17 04:15:49;;;;;;;8.20;7.50;;;16.20;99.90;;;;;;4986737;28;20210;-74
2023/06/17 04:18:16;;;;;;;7.93;7.20;;;16.10;99.90;;;;;;4986220;28;20221;-74
2023/06/17 04:20:44;;;;;;;7.80;7.10;;;16.00;99.90;;;;;;4986496;28;20288;-74
2023/06/17 04:23:13;;;;;;;8.57;7.63;;;16.00;99.90;;;;;;4986134;28;20653;-74
2023/06/17 04:25:40;;;;;;;9.33;7.67;;;16.00;99.90;;;;;;4986210;28;20663;-73
2023/06/17 04:28:08;;;;;;;10.03;8.10;;;15.80;99.90;;;;;;4986424;28;20221;-74
2023/06/17 04:30:37;;;;;;;9.07;8.27;;;15.90;99.90;;;;;;4986085;28;20756;-73
2023/06/17 04:33:06;;;;;;;8.17;7.53;;;15.90;99.90;;;;;;4986153;28;20612;-74
2023/06/17 04:35:33;;;;;;;8.77;7.70;;;15.90;99.90;;;;;;4986690;28;20218;-73
2023/06/17 04:38:02;;;;;;;9.20;8.37;;;15.90;99.90;;;;;;4997024;28;20297;-74
2023/06/17 04:40:31;;;;;;;8.47;7.77;;;16.00;99.90;;;;;;4986685;28;20206;-74
2023/06/17 04:42:59;;;;;;;9.20;8.30;;;16.10;99.90;;;;;;4992423;28;20208;-76
2023/06/17 04:45:27;;;;;;;9.53;8.60;;;16.10;99.90;;;;;;4996834;28;20280;-76
2023/06/17 04:47:53;;;;;;;9.37;8.67;;;16.10;99.90;;;;;;4986718;28;20268;-76
2023/06/17 04:50:23;;;;;;;9.77;8.90;;;16.20;99.90;;;;;;4986474;28;20213;-76
2023/06/17 04:52:51;;;;;;;10.93;10.03;;;16.20;99.90;;;;;;4996147;28;20271;-75
2023/06/17 04:55:21;;;;;;;10.13;9.23;;;16.10;99.90;;;;;;4997482;28;20923;-74
2023/06/17 04:57:48;;;;;;;10.70;9.80;;;16.10;99.90;;;;;;4989337;28;20216;-74
2023/06/17 05:00:16;;;;;;;10.77;9.77;;;16.00;99.90;;;;;;4990301;28;20209;-74
2023/06/17 05:02:43;;;;;;;10.50;9.70;;;15.90;99.90;;;;;;4989907;28;20232;-75
2023/06/17 05:05:10;;;;;;;11.40;10.50;;;15.70;99.90;;;;;;4989868;28;20240;-75
2023/06/17 05:07:38;;;;;;;12.23;11.13;;;15.80;99.90;;;;;;5005858;28;20296;-75
2023/06/17 05:10:06;;;;;;;11.57;10.63;;;15.70;99.90;;;;;;5009401;28;20287;-75
2023/06/17 05:12:33;;;;;;;12.17;11.17;;;15.80;99.90;;;;;;5009504;28;20217;-75
2023/06/17 05:15:00;;;;;;;12.83;11.73;;;15.90;99.90;;;;;;4990578;28;20205;-75
2023/06/17 05:17:27;;;;;;;13.37;10.70;;;15.90;99.90;;;;;;4989470;28;20206;-75
2023/06/17 05:19:53;;;;;;;11.80;10.90;;;16.00;99.90;;;;;;4989789;28;20296;-75
2023/06/17 05:22:20;;;;;;;13.27;12.03;;;16.10;99.90;;;;;;4989823;28;20329;-75
2023/06/17 05:24:48;;;;;;;12.43;11.43;;;16.20;99.90;;;;;;4989699;28;20325;-75
2023/06/17 05:27:16;;;;;;;13.07;11.97;;;16.20;99.90;;;;;;4990562;28;20229;-75
2023/06/17 05:29:43;;;;;;;13.60;12.30;;;16.30;99.90;;;;;;4989656;28;20221;-73
2023/06/17 05:32:10;;;;;;;12.90;11.90;;;16.40;99.90;;;;;;4989380;28;20776;-73
2023/06/17 05:34:37;;;;;;;13.07;12.10;;;16.40;99.90;;;;;;4989770;28;20208;-73
2023/06/17 05:37:04;;;;;;;15.00;13.60;;;16.40;99.90;;;;;;4989436;28;20237;-73
2023/06/17 05:39:31;;;;;;;13.37;12.27;;;16.40;99.90;;;;;;4989608;28;20261;-77
2023/06/17 05:41:59;;;;;;;13.63;12.53;;;16.30;99.90;;;;;;4989618;28;20339;-76
2023/06/17 05:44:26;;;;;;;14.00;12.83;;;16.30;99.90;;;;;;4989272;28;20213;-76
2023/06/17 05:46:53;;;;;;;13.83;12.70;;;16.40;99.90;;;;;;4989248;28;20643;-76
2023/06/17 05:49:20;;;;;;;13.97;12.77;;;16.40;99.90;;;;;;4990609;28;20214;-77
2023/06/17 05:51:46;;;;;;;13.90;12.70;;;16.50;99.90;;;;;;4989398;28;20293;-74
2023/06/17 05:54:13;;;;;;;13.67;12.30;;;16.50;99.90;;;;;;4989659;28;20282;-75
2023/06/17 05:56:40;;;;;;;14.10;12.90;;;16.60;99.90;;;;;;4989033;28;20210;-74
2023/06/17 05:59:09;;;;;;;13.90;12.90;;;16.60;99.90;;;;;;4989029;28;20617;-74
2023/06/17 06:01:37;;;;;;;14.53;13.30;;;16.60;99.90;;;;;;4988449;28;20321;-75
2023/06/17 06:04:04;;;;;;;15.50;14.10;;;16.60;99.90;;;;;;4988829;28;20228;-74
2023/06/17 06:06:31;;;;;;;14.43;13.33;;;16.70;99.90;;;;;;4988945;28;20624;-74
2023/06/17 06:08:58;;;;;;;14.53;13.33;;;16.70;99.90;;;;;;4988661;28;20289;-74
2023/06/17 06:11:25;;;;;;;15.37;13.87;;;16.70;99.90;;;;;;4988867;28;20218;-74
2023/06/17 06:13:52;;;;;;;14.87;13.50;;;16.70;99.90;;;;;;4988784;28;20297;-74
2023/06/17 06:16:20;;;;;;;14.03;12.93;;;16.70;99.90;;;;;;4988666;28;20627;-74
2023/06/17 06:18:47;;;;;;;13.70;12.67;;;16.70;99.90;;;;;;4988798;28;20214;-74
2023/06/17 06:21:14;;;;;;;14.03;12.90;;;16.80;99.90;;;;;;4997293;28;20771;-74
2023/06/17 06:23:41;;;;;;;13.53;12.43;;;16.90;99.90;;;;;;5008140;28;20237;-75
2023/06/17 06:26:08;;;;;;;14.10;12.80;;;16.90;99.90;;;;;;4988877;28;20273;-74
2023/06/17 06:28:35;;;;;;;14.13;12.93;;;16.90;99.90;;;;;;4988809;28;20297;-76
2023/06/17 06:31:01;;;;;;;14.07;12.70;;;16.90;99.90;;;;;;4988399;28;20252;-76
2023/06/17 06:33:30;;;;;;;13.83;12.73;;;16.90;99.90;;;;;;4988582;28;20635;-76
2023/06/17 06:35:57;;;;;;;13.53;12.43;;;16.80;99.90;;;;;;4995556;28;20236;-76
2023/06/17 06:38:24;;;;;;;14.87;13.50;;;16.90;99.90;;;;;;4987855;28;20317;-76
2023/06/17 06:40:50;;;;;;;13.60;12.53;;;16.80;99.90;;;;;;4988870;28;20316;-76
2023/06/17 06:43:17;;;;;;;14.43;13.23;;;16.90;99.90;;;;;;4987809;28;20244;-74
2023/06/17 06:45:44;;;;;;;13.83;12.53;;;16.90;99.90;;;;;;5000616;28;20308;-74
2023/06/17 06:48:11;;;;;;;14.77;13.37;;;17.00;99.90;;;;;;5001292;28;20206;-73
2023/06/17 06:50:39;;;;;;;15.27;13.87;;;17.10;99.90;;;;;;4988204;28;20293;-73
2023/06/17 06:53:06;;;;;;;15.53;14.30;;;17.20;99.90;;;;;;4988007;28;20241;-74
2023/06/17 06:55:33;;;;;;;14.97;13.57;;;17.20;99.90;;;;;;4988403;28;20328;-74
2023/06/17 06:58:00;;;;;;;15.00;13.63;;;17.10;99.90;;;;;;4987875;28;20372;-74
2023/06/17 07:00:27;;;;;;;14.63;13.43;;;17.20;99.90;;;;;;4987388;28;20317;-75
2023/06/17 07:02:53;;;;;;;12.60;11.60;;;17.30;99.90;;;;;;4987794;28;20344;-75
2023/06/17 07:05:22;;;;;;;13.57;12.53;;;17.40;99.90;;;;;;4987931;28;20661;-76
2023/06/17 07:07:50;;;;;;;13.70;12.57;;;17.20;99.90;;;;;;4987811;28;20688;-76
2023/06/17 07:10:17;;;;;;;13.37;12.37;;;17.20;99.90;;;;;;4987778;28;20326;-74
2023/06/17 07:12:44;;;;;;;14.17;13.07;;;17.20;99.90;;;;;;4987698;28;20321;-74
2023/06/17 07:15:11;;;;;;;14.80;13.47;;;17.20;99.90;;;;;;4987450;28;20301;-74
2023/06/17 07:17:38;;;;;;;14.67;13.27;;;17.20;99.90;;;;;;4987376;28;20224;-74
2023/06/17 07:20:06;;;;;;;14.37;13.00;;;17.30;99.90;;;;;;4986845;28;20305;-74
2023/06/17 07:22:33;;;;;;;14.00;12.80;;;17.30;99.90;;;;;;4987207;28;20240;-74
2023/06/17 07:25:02;;;;;;;14.33;13.03;;;17.50;99.90;;;;;;4987725;28;20321;-74
2023/06/17 07:27:29;;;;;;;13.57;12.47;;;17.60;99.90;;;;;;4987795;28;20210;-74
2023/06/17 07:29:56;;;;;;;14.63;13.43;;;17.70;99.90;;;;;;4987313;28;20272;-74
2023/06/17 07:32:23;;;;;;;13.73;12.63;;;17.80;99.90;;;;;;4999072;28;20408;-74
2023/06/17 07:34:50;;;;;;;15.00;13.80;;;17.90;99.90;;;;;;4992549;28;20300;-75
2023/06/17 07:37:17;;;;;;;13.93;12.83;;;17.70;99.90;;;;;;5000760;28;20237;-74
2023/06/17 07:39:46;;;;;;;14.23;13.17;;;17.70;99.90;;;;;;5007139;28;20217;-74
2023/06/17 07:42:15;;;;;;;14.17;12.97;;;17.70;99.90;;;;;;4992178;28;20233;-74
2023/06/17 07:44:42;;;;;;;14.97;13.73;;;17.80;99.90;;;;;;4987220;28;20210;-75
2023/06/17 07:47:09;;;;;;;14.43;13.13;;;17.90;99.90;;;;;;4986864;28;20298;-75
2023/06/17 07:49:36;;;;;;;14.23;13.13;;;17.90;99.90;;;;;;4987154;28;20288;-74
2023/06/17 07:52:03;;;;;;;12.40;11.40;;;17.90;99.90;;;;;;4986768;28;20333;-75
2023/06/17 07:54:30;;;;;;;13.50;12.40;;;18.00;99.90;;;;;;4986818;28;20234;-75
2023/06/17 07:56:57;;;;;;;14.67;13.27;;;18.10;99.90;;;;;;4987827;28;20210;-75
2023/06/17 07:59:26;;;;;;;13.77;12.77;;;18.10;99.90;;;;;;4980402;28;20301;-76
2023/06/17 08:01:53;;;;;;;13.73;12.50;;;18.20;99.90;;;;;;4986947;28;20229;-77
2023/06/17 08:04:20;;;;;;;13.73;12.67;;;18.20;99.90;;;;;;4986984;28;20316;-76
2023/06/17 08:06:47;;;;;;;14.00;12.80;;;18.20;99.90;;;;;;4987246;28;20297;-76
2023/06/17 08:09:14;;;;;;;14.30;12.90;;;18.20;99.90;;;;;;4987440;28;20210;-76
2023/06/17 08:11:41;;;;;;;13.50;12.50;;;18.20;99.90;;;;;;4987393;28;20234;-76
2023/06/17 08:14:08;;;;;;;14.63;13.23;;;18.20;99.90;;;;;;4987337;28;20289;-75
2023/06/17 08:16:36;;;;;;;10.67;9.87;;;18.30;99.90;;;;;;4988549;28;20218;-74
2023/06/17 08:19:03;;;;;;;13.03;12.03;;;18.40;99.90;;;;;;5006709;28;20213;-74
2023/06/17 08:21:30;;;;;;;13.13;12.13;;;18.50;99.90;;;;;;5006247;28;20272;-78
2023/06/17 08:23:57;;;;;;;12.83;11.83;;;18.50;99.90;;;;;;4994849;28;20231;-76
2023/06/17 08:26:24;;;;;;;13.30;12.30;;;18.60;99.90;;;;;;4986314;28;20375;-76
2023/06/17 08:28:51;;;;;;;13.03;12.00;;;18.70;99.90;;;;;;4986608;28;20268;-76
2023/06/17 08:31:19;;;;;;;12.10;11.20;;;18.70;99.90;;;;;;4985697;28;20616;-73
2023/06/17 08:33:47;;;;;;;12.90;11.90;;;18.70;99.90;;;;;;4985896;28;20264;-73
2023/06/17 08:36:14;;;;;;;12.80;11.53;;;18.70;99.90;;;;;;4986701;28;20214;-75
2023/06/17 08:38:41;;;;;;;11.47;10.57;;;18.80;99.90;;;;;;4986548;28;20205;-74
2023/06/17 08:41:08;;;;;;;10.47;9.57;;;18.80;99.90;;;;;;4986816;28;20214;-74
2023/06/17 08:43:38;;;;;;;11.83;10.80;;;19.00;99.90;;;;;;4985343;28;20321;-74
2023/06/17 08:46:06;;;;;;;11.43;10.57;;;19.10;99.90;;;;;;4981170;28;20236;-74
2023/06/17 08:48:33;;;;;;;9.67;8.93;;;19.30;99.90;;;;;;4986582;28;20206;-74
2023/06/17 08:51:01;;;;;;;13.17;12.17;;;19.40;99.90;;;;;;4986398;28;20589;-74
2023/06/17 08:53:29;;;;;;;13.13;12.00;;;19.30;99.90;;;;;;4986116;28;20242;-74
2023/06/17 08:55:56;;;;;;;10.67;9.87;;;19.20;99.90;;;;;;4986310;28;20214;-74
2023/06/17 08:58:23;;;;;;;10.77;9.90;;;19.20;99.90;;;;;;4986052;28;20292;-74
2023/06/17 09:00:50;;;;;;;10.57;9.77;;;19.20;99.90;;;;;;4986153;28;20213;-74
2023/06/17 09:03:20;;;;;;;10.60;9.70;;;19.30;99.90;;;;;;4985350;28;20280;-74
2023/06/17 09:05:47;;;;;;;9.90;9.20;;;19.40;99.90;;;;;;4985587;28;20240;-74
2023/06/17 09:08:15;;;;;;;10.30;9.50;;;19.50;99.90;;;;;;4985571;28;20209;-77
2023/06/17 09:10:43;;;;;;;10.93;9.83;;;19.50;99.90;;;;;;4981602;28;20575;-74
2023/06/17 09:13:10;;;;;;;11.20;10.40;;;19.50;99.90;;;;;;4969455;28;21078;-74
2023/06/17 09:15:40;;;;;;;10.07;9.37;;;19.40;99.90;;;;;;4984213;28;20673;-74
2023/06/17 09:18:08;;;;;;;9.20;8.40;;;19.50;99.90;;;;;;4984521;28;20751;-75
2023/06/17 09:20:35;;;;;;;10.20;9.50;;;19.60;99.90;;;;;;4984238;28;20220;-75
2023/06/17 09:23:02;;;;;;;9.27;8.47;;;19.70;99.90;;;;;;4980416;28;20245;-74
2023/06/17 09:25:35;;;;;;;9.13;8.43;;;19.90;99.90;;;;;;4987187;28;20240;-74
2023/06/17 09:28:03;;;;;;;10.40;9.50;;;20.00;99.90;;;;;;4982677;28;20566;-74
2023/06/17 09:30:30;;;;;;;10.63;9.73;;;19.90;99.90;;;;;;4984713;28;20293;-74
2023/06/17 09:32:57;;;;;;;10.30;9.57;;;19.90;99.90;;;;;;4984139;28;20210;-74
2023/06/17 09:35:24;;;;;;;9.90;9.20;;;19.90;99.90;;;;;;4964993;28;20273;-74
2023/06/17 09:37:52;;;;;;;9.70;8.83;;;19.90;99.90;;;;;;4982696;28;20210;-74
2023/06/17 09:40:19;;;;;;;8.23;7.63;;;19.90;99.90;;;;;;4984015;28;20210;-74
2023/06/17 09:42:50;;;;;;;7.97;7.37;;;19.90;99.90;;;;;;4984307;28;20245;-74
2023/06/17 09:45:23;;;;;;;8.03;7.43;;;20.00;99.90;;;;;;4987699;28;20299;-74
2023/06/17 09:47:54;;;;;;;9.13;8.10;;;20.10;99.90;;;;;;4988066;28;20226;-74
2023/06/17 09:50:22;;;;;;;8.30;7.80;;;20.20;99.90;;;;;;4987321;28;20210;-74
2023/06/17 09:52:52;;;;;;;9.00;8.30;;;20.20;99.90;;;;;;4987216;28;20321;-74
2023/06/17 09:55:20;;;;;;;8.90;8.30;;;20.30;99.90;;;;;;4987731;28;20224;-74
2023/06/17 09:57:53;;;;;;;9.63;8.90;;;20.40;99.90;;;;;;4987589;28;20618;-74
2023/06/17 10:00:23;;;;;;;9.13;8.43;;;20.40;99.90;;;;;;4987661;28;20332;-75
2023/06/17 10:02:50;;;;;;;8.90;8.30;;;20.50;99.90;;;;;;4987700;28;20304;-75
2023/06/17 10:05:20;;;;;;;8.80;8.20;;;20.60;99.90;;;;;;4988033;28;20238;-74
2023/06/17 10:07:47;;;;;;;9.13;8.43;;;20.60;99.90;;;;;;5004935;28;20697;-74
2023/06/17 10:10:16;;;;;;;8.93;8.27;;;20.60;99.90;;;;;;4984372;28;20209;-74
2023/06/17 10:12:44;;;;;;;8.70;8.13;;;20.60;99.90;;;;;;4987365;28;20218;-74
2023/06/17 10:15:13;;;;;;;8.23;7.57;;;20.50;99.90;;;;;;4987121;28;20233;-73
2023/06/17 10:17:44;;;;;;;8.97;8.13;;;20.50;99.90;;;;;;4987249;28;20213;-74
2023/06/17 10:20:12;;;;;;;8.57;7.97;;;20.60;99.90;;;;;;4987289;28;20202;-73
2023/06/17 10:22:40;;;;;;;9.73;7.90;;;20.50;99.90;;;;;;4986765;28;20233;-74
2023/06/17 10:25:09;;;;;;;7.63;6.80;;;20.60;99.90;;;;;;4987068;28;20216;-74
2023/06/17 10:27:37;;;;;;;7.03;6.63;;;20.60;99.90;;;;;;4986405;28;20229;-74
2023/06/17 10:30:25;;;;;;;7.90;7.40;;;20.80;99.90;;;;;;4986621;28;20225;-74
2023/06/17 10:33:01;;;;;;;8.23;7.13;;;20.90;99.90;;;;;;4985935;28;20213;-73
2023/06/17 10:35:38;;;;;;;8.00;7.40;;;20.80;99.90;;;;;;4985988;28;20237;-74
2023/06/17 10:38:06;;;;;;;6.93;6.53;;;20.80;99.90;;;;;;4986858;28;20577;-73
2023/06/17 10:40:36;;;;;;;6.85;6.32;;;20.80;99.90;;;;;;4987466;28;20310;-74
2023/06/17 10:43:20;;;;;;;7.33;6.77;;;21.00;99.90;;;;;;4987151;28;20230;-74
2023/06/17 10:45:55;;;;;;;7.43;6.73;;;21.10;99.90;;;;;;4986484;28;20210;-73
2023/06/17 10:48:24;;;;;;;6.87;6.37;;;21.20;99.90;;;;;;4985827;28;20213;-70
2023/06/17 10:50:53;;;;;;;6.95;6.40;;;21.10;99.90;;;;;;4986009;28;20296;-70
2023/06/17 10:53:28;;;;;;;7.07;6.67;;;21.10;99.90;;;;;;4986284;28;20722;-70
2023/06/17 10:55:56;;;;;;;6.97;6.50;;;21.00;99.90;;;;;;4986553;28;20209;-70
2023/06/17 10:58:23;;;;;;;6.43;6.03;;;20.90;99.90;;;;;;4986059;28;20221;-70
2023/06/17 11:01:00;;;;;;;7.13;6.53;;;20.90;99.90;;;;;;4986538;28;20242;-71
2023/06/17 11:03:28;;;;;;;7.10;6.50;;;20.90;99.90;;;;;;4982107;28;20968;-70
2023/06/17 11:05:58;;;;;;;7.00;6.30;;;20.90;99.90;;;;;;4986359;28;20217;-73
2023/06/17 11:08:25;;;;;;;6.93;6.33;;;20.80;99.90;;;;;;4985907;28;20198;-73
2023/06/17 11:10:52;;;;;;;5.80;5.50;;;20.80;99.90;;;;;;4986133;28;20221;-73
2023/06/17 11:13:21;;;;;;;7.10;6.60;;;20.70;99.90;;;;;;4985875;28;20309;-73
2023/06/17 11:15:54;;;;;;;6.50;6.10;;;20.70;99.90;;;;;;4985880;28;20223;-73
2023/06/17 11:18:23;;;;;;;7.47;6.83;;;20.60;99.90;;;;;;5002831;28;20762;-73
2023/06/17 11:20:50;;;;;;;7.13;6.63;;;20.50;99.90;;;;;;4986051;28;20272;-73
2023/06/17 11:23:18;;;;;;;12.67;8.47;;;20.50;99.90;;;;;;4985412;28;20255;-73
2023/06/17 11:25:45;;;;;;;12.40;9.90;;;20.40;99.90;;;;;;4985751;28;20206;-73
2023/06/17 11:28:12;;;;;;;12.73;9.13;;;20.20;99.90;;;;;;4985708;28;20213;-73
2023/06/17 11:30:40;;;;;;;11.17;8.97;;;20.10;99.90;;;;;;4985498;28;20218;-73
2023/06/17 11:33:07;;;;;;;6.10;5.70;;;19.90;99.90;;;;;;4985238;28;20754;-73
2023/06/17 11:35:36;;;;;;;4.50;4.20;;;19.60;99.90;;;;;;4985068;28;20684;-72
2023/06/17 11:38:04;;;;;;;5.00;4.70;;;19.20;99.90;;;;;;4974799;28;20202;-73
2023/06/17 11:40:31;;;;;;;8.77;7.97;;;19.00;99.90;;;;;;4985681;28;20702;-73
2023/06/17 11:42:58;;;;;;;6.43;5.83;;;19.00;99.90;;;;;;4985360;28;20234;-72
2023/06/17 11:45:27;;;;;;;6.37;4.90;;;18.90;99.90;;;;;;4975305;28;20257;-73
2023/06/17 11:47:54;;;;;;;5.30;4.90;;;18.80;99.90;;;;;;4984909;28;20617;-73
2023/06/17 11:50:21;;;;;;;5.57;5.07;;;18.80;99.90;;;;;;4983824;28;20214;-73
2023/06/17 11:52:56;;;;;;;5.50;5.00;;;18.80;99.90;;;;;;4986458;28;20705;-73
2023/06/17 11:55:31;;;;;;;5.10;4.70;;;18.70;99.90;;;;;;4986829;28;20202;-72
2023/06/17 11:57:58;;;;;;;7.27;5.20;;;18.70;99.90;;;;;;4986533;28;20197;-73
2023/06/17 12:00:25;;;;;;;5.83;5.33;;;18.70;99.90;;;;;;4982673;28;20330;-72
2023/06/17 12:02:55;;;;;;;5.77;5.27;;;18.70;99.90;;;;;;4983499;28;20229;-73
2023/06/17 12:05:22;;;;;;;5.10;4.70;;;18.70;99.90;;;;;;4987043;28;20216;-73
2023/06/17 12:07:48;;;;;;;5.00;4.50;;;18.70;99.90;;;;;;4986818;28;20301;-72
2023/06/17 12:10:17;;;;;;;5.13;4.47;;;18.70;99.90;;;;;;4986517;28;20213;-72
2023/06/17 12:12:45;;;;;;;4.90;4.50;;;18.60;99.90;;;;;;4985347;28;20203;-72
2023/06/17 12:15:12;;;;;;;4.77;4.23;;;18.50;99.90;;;;;;4986133;28;20214;-73
2023/06/17 12:17:41;;;;;;;4.47;4.27;;;18.40;99.90;;;;;;4986113;28;20676;-73
2023/06/17 12:20:14;;;;;;;10.13;5.10;;;18.30;99.90;;;;;;4986326;28;20202;-73
2023/06/17 12:22:41;;;;;;;5.13;4.73;;;18.30;99.90;;;;;;4986337;28;20346;-73
2023/06/17 12:25:09;;;;;;;4.30;3.87;;;18.40;99.90;;;;;;4986341;28;20210;-72
2023/06/17 12:27:38;;;;;;;4.40;4.10;;;18.40;99.90;;;;;;4986063;28;20269;-72
2023/06/17 12:30:06;;;;;;;4.37;4.00;;;18.40;99.90;;;;;;4986290;28;20225;-72
2023/06/17 12:32:32;;;;;;;4.63;4.13;;;18.50;99.90;;;;;;4986290;28;20297;-73
2023/06/17 12:34:59;;;;;;;4.13;3.83;;;18.60;99.90;;;;;;4986354;28;20316;-72
2023/06/17 12:37:28;;;;;;;4.30;4.10;;;18.60;99.90;;;;;;4986023;28;20268;-73
2023/06/17 12:39:57;;;;;;;4.37;4.07;;;18.70;99.90;;;;;;4986207;28;20217;-72
2023/06/17 12:42:24;;;;;;;3.77;3.47;;;18.70;99.90;;;;;;4986247;28;20210;-73
2023/06/17 12:44:53;;;;;;;4.10;3.87;;;18.80;99.90;;;;;;4986225;28;20233;-73